createdAt,value
2018-07-27T00:01:22.023Z,36.70
2018-07-27T00:03:56.438Z,35.34
2018-07-27T00:06:30.843Z,36.27
2018-07-27T00:09:08.480Z,35.83
2018-07-27T00:11:43.639Z,35.64
2018-07-27T00:14:18.080Z,36.57
2018-07-27T00:16:52.567Z,36.43
2018-07-27T00:19:27.215Z,35.51
2018-07-27T00:22:01.704Z,37.57
2018-07-27T00:24:36.107Z,36.65
2018-07-27T00:27:10.483Z,37.00
2018-07-27T00:29:45.231Z,35.72
2018-07-27T00:32:19.502Z,36.68
2018-07-27T00:34:53.908Z,35.68
2018-07-27T00:37:28.340Z,35.55
2018-07-27T00:40:02.737Z,35.24
2018-07-27T00:42:37.200Z,35.52
2018-07-27T00:45:11.651Z,35.46
2018-07-27T00:47:46.056Z,35.29
2018-07-27T00:50:20.350Z,37.23
2018-07-27T00:52:55.809Z,35.81
2018-07-27T00:55:33.215Z,35.29
2018-07-27T00:58:07.616Z,35.31
2018-07-27T01:00:41.907Z,34.95
2018-07-27T01:03:16.272Z,35.01
2018-07-27T01:05:50.899Z,34.97
2018-07-27T01:08:25.352Z,34.62
2018-07-27T01:10:59.788Z,35.27
2018-07-27T01:13:34.352Z,35.12
2018-07-27T01:16:08.999Z,34.35
2018-07-27T01:18:43.544Z,35.21
2018-07-27T01:21:17.900Z,35.35
2018-07-27T01:23:52.164Z,34.82
2018-07-27T01:26:26.539Z,34.44
2018-07-27T01:29:00.977Z,34.84
2018-07-27T01:31:35.736Z,34.90
2018-07-27T01:34:10.286Z,35.38
2018-07-27T01:36:44.652Z,35.12
2018-07-27T01:39:19.090Z,36.81
2018-07-27T01:41:53.592Z,34.95
2018-07-27T01:44:32.736Z,35.51
2018-07-27T01:47:19.055Z,34.70
2018-07-27T01:49:56.876Z,35.45
2018-07-27T01:52:31.281Z,35.23
2018-07-27T01:55:05.923Z,35.98
2018-07-27T01:57:40.465Z,34.92
2018-07-27T02:00:14.898Z,35.16
2018-07-27T02:02:49.171Z,35.32
2018-07-27T02:05:23.539Z,35.64
2018-07-27T02:07:57.752Z,36.16
2018-07-27T02:10:31.963Z,35.56
2018-07-27T02:13:06.225Z,36.01
2018-07-27T02:15:40.567Z,35.78
2018-07-27T02:18:15.012Z,36.71
2018-07-27T02:23:48.434Z,37.02
2018-07-27T02:26:22.667Z,37.50
2018-07-27T02:28:56.877Z,37.30
2018-07-27T02:31:31.236Z,38.32
2018-07-27T02:34:05.670Z,37.53
2018-07-27T02:36:39.964Z,37.20
2018-07-27T02:39:14.403Z,37.54
2018-07-27T02:41:48.788Z,38.93
2018-07-27T02:44:23.168Z,38.40
2018-07-27T02:46:57.473Z,38.30
2018-07-27T02:49:31.879Z,39.56
2018-07-27T02:52:06.220Z,38.47
2018-07-27T02:54:40.593Z,38.50
2018-07-27T02:57:15.043Z,38.09
2018-07-27T02:59:49.689Z,39.01
2018-07-27T03:02:23.887Z,38.85
2018-07-27T03:04:58.187Z,39.42
2018-07-27T03:07:32.634Z,39.78
2018-07-27T03:10:07.308Z,40.78
2018-07-27T03:12:41.617Z,39.59
2018-07-27T03:15:16.011Z,39.96
2018-07-27T03:17:50.340Z,40.25
2018-07-27T03:20:24.664Z,40.26
2018-07-27T03:22:59.123Z,40.27
2018-07-27T03:25:33.483Z,40.30
2018-07-27T03:28:07.763Z,40.11
2018-07-27T03:30:42.129Z,39.65
2018-07-27T03:33:16.330Z,40.00
2018-07-27T03:35:50.700Z,39.63
2018-07-27T03:38:25.111Z,40.33
2018-07-27T03:40:59.423Z,39.33
2018-07-27T03:43:33.794Z,39.55
2018-07-27T03:46:08.291Z,40.40
2018-07-27T03:48:42.776Z,39.90
2018-07-27T03:51:17.121Z,40.92
2018-07-27T03:53:51.391Z,41.22
2018-07-27T03:56:25.827Z,42.39
2018-07-27T03:59:00.266Z,41.34
2018-07-27T04:01:34.670Z,41.13
2018-07-27T04:04:09.070Z,40.28
2018-07-27T04:06:43.504Z,40.08
2018-07-27T04:09:17.919Z,40.82
2018-07-27T04:11:52.246Z,40.84
2018-07-27T04:14:26.608Z,41.13
2018-07-27T04:17:00.893Z,40.90
2018-07-27T04:19:35.327Z,40.52
2018-07-27T04:22:09.723Z,39.92
2018-07-27T04:24:44.082Z,40.53
2018-07-27T04:27:18.458Z,40.94
2018-07-27T04:29:52.828Z,40.57
2018-07-27T04:32:27.079Z,40.13
2018-07-27T04:35:01.515Z,40.32
2018-07-27T04:37:35.792Z,39.43
2018-07-27T04:40:10.324Z,40.38
2018-07-27T04:42:44.760Z,40.36
2018-07-27T04:45:19.260Z,40.52
2018-07-27T04:47:53.817Z,40.25
2018-07-27T04:50:28.563Z,41.62
2018-07-27T04:53:03.096Z,40.49
2018-07-27T04:55:37.564Z,39.63
2018-07-27T04:58:11.908Z,41.76
2018-07-27T05:00:47.353Z,41.84
2018-07-27T05:03:22.017Z,41.15
2018-07-27T05:05:56.701Z,39.14
2018-07-27T05:08:31.300Z,41.38
2018-07-27T05:11:06.497Z,39.61
2018-07-27T05:13:40.751Z,39.24
2018-07-27T05:16:15.245Z,39.20
2018-07-27T05:18:49.702Z,39.03
2018-07-27T05:21:24.594Z,39.18
2018-07-27T05:24:12.636Z,39.44
2018-07-27T05:26:47.132Z,38.45
2018-07-27T05:29:21.546Z,39.25
2018-07-27T05:31:56.688Z,38.50
2018-07-27T05:34:31.840Z,38.75
2018-07-27T05:37:06.996Z,40.28
2018-07-27T05:39:41.756Z,38.05
2018-07-27T05:42:16.361Z,38.00
2018-07-27T05:44:51.015Z,41.57
2018-07-27T05:47:25.632Z,39.43
2018-07-27T05:50:01.133Z,36.99
2018-07-27T05:52:35.643Z,37.76
2018-07-27T05:55:10.235Z,37.43
2018-07-27T05:57:44.813Z,37.16
2018-07-27T06:00:19.290Z,37.66
2018-07-27T06:02:53.963Z,36.42
2018-07-27T06:05:28.454Z,36.77
2018-07-27T06:08:03.133Z,38.47
2018-07-27T06:10:37.636Z,36.94
2018-07-27T06:13:12.235Z,35.93
2018-07-27T06:15:46.897Z,39.03
2018-07-27T06:18:21.425Z,36.63
2018-07-27T06:20:56.063Z,36.36
2018-07-27T06:23:30.491Z,35.63
2018-07-27T06:26:05.025Z,36.17
2018-07-27T06:28:39.473Z,33.87
2018-07-27T06:31:14.065Z,31.16
2018-07-27T06:33:48.521Z,26.70
2018-07-27T06:36:23.046Z,23.72
2018-07-27T06:38:57.501Z,22.22
2018-07-27T06:41:32.032Z,20.17
2018-07-27T06:44:06.489Z,19.18
2018-07-27T06:46:40.892Z,18.55
2018-07-27T06:49:15.320Z,17.80
2018-07-27T06:51:49.719Z,17.78
2018-07-27T06:54:30.387Z,17.89
2018-07-27T06:57:04.928Z,16.80
2018-07-27T06:59:39.272Z,17.01
2018-07-27T07:02:13.820Z,18.07
2018-07-27T07:04:51.205Z,18.33
2018-07-27T07:07:25.780Z,17.81
2018-07-27T07:10:00.266Z,16.01
2018-07-27T07:12:35.088Z,15.24
2018-07-27T07:15:10.568Z,15.19
2018-07-27T07:17:45.021Z,15.69
2018-07-27T07:20:19.574Z,15.27
2018-07-27T07:22:54.032Z,15.43
2018-07-27T07:25:28.489Z,15.17
2018-07-27T07:28:02.816Z,15.91
2018-07-27T07:30:37.678Z,14.27
2018-07-27T07:33:12.445Z,13.57
2018-07-27T07:35:46.776Z,14.47
2018-07-27T07:38:21.452Z,14.78
2018-07-27T07:40:55.966Z,14.64
2018-07-27T07:43:30.425Z,14.18
2018-07-27T07:46:04.912Z,14.31
2018-07-27T07:48:39.703Z,13.26
2018-07-27T07:51:14.480Z,12.82
2018-07-27T07:53:49.037Z,12.43
2018-07-27T07:56:23.600Z,13.40
2018-07-27T07:58:58.010Z,13.11
2018-07-27T08:01:32.929Z,12.21
2018-07-27T08:04:07.436Z,12.85
2018-07-27T08:06:41.823Z,12.49
2018-07-27T08:09:16.341Z,12.69
2018-07-27T08:11:50.716Z,11.70
2018-07-27T08:14:25.070Z,12.13
2018-07-27T08:16:59.725Z,12.38
2018-07-27T08:19:34.103Z,12.84
2018-07-27T08:22:08.516Z,11.83
2018-07-27T08:24:43.244Z,12.14
2018-07-27T08:27:17.761Z,12.06
2018-07-27T08:29:52.257Z,12.20
2018-07-27T08:32:26.727Z,11.21
2018-07-27T08:35:01.043Z,11.41
2018-07-27T08:37:35.467Z,11.77
2018-07-27T08:40:09.868Z,12.56
2018-07-27T08:42:44.390Z,12.29
2018-07-27T08:45:18.765Z,12.67
2018-07-27T08:47:53.196Z,11.38
2018-07-27T08:50:27.924Z,11.56
2018-07-27T08:53:02.492Z,11.64
2018-07-27T08:56:01.945Z,12.90
2018-07-27T08:58:59.825Z,12.99
2018-07-27T09:01:34.401Z,12.12
2018-07-27T09:04:33.554Z,12.23
2018-07-27T09:07:08.104Z,11.66
2018-07-27T09:09:42.540Z,12.23
2018-07-27T09:12:17.105Z,11.88
2018-07-27T09:14:51.817Z,12.05
2018-07-27T09:17:26.311Z,12.58
2018-07-27T09:20:00.552Z,11.12
2018-07-27T09:22:37.255Z,11.25
2018-07-27T09:25:18.672Z,11.51
2018-07-27T09:27:54.135Z,12.13
2018-07-27T09:30:40.752Z,10.24
2018-07-27T09:33:16.312Z,11.25
2018-07-27T09:35:58.757Z,10.99
2018-07-27T09:38:33.461Z,9.99
2018-07-27T09:41:07.885Z,9.72
2018-07-27T09:43:42.224Z,9.01
2018-07-27T09:46:16.651Z,10.15
2018-07-27T09:48:52.005Z,10.26
2018-07-27T09:51:33.991Z,10.10
2018-07-27T09:54:09.452Z,10.52
2018-07-27T09:56:44.007Z,10.99
2018-07-27T09:59:18.486Z,11.04
2018-07-27T10:01:52.985Z,10.46
2018-07-27T10:04:27.548Z,10.93
2018-07-27T10:07:02.074Z,10.74
2018-07-27T10:09:36.514Z,10.44
2018-07-27T10:12:11.067Z,10.32
2018-07-27T10:14:45.571Z,10.18
2018-07-27T10:17:19.888Z,10.02
2018-07-27T10:19:54.354Z,11.01
2018-07-27T10:22:28.980Z,11.48
2018-07-27T10:25:03.489Z,10.40
2018-07-27T10:27:37.972Z,10.25
2018-07-27T10:30:12.372Z,11.92
2018-07-27T10:32:47.108Z,10.54
2018-07-27T10:35:21.924Z,11.38
2018-07-27T10:37:56.365Z,9.65
2018-07-27T10:40:30.836Z,9.47
2018-07-27T10:43:05.372Z,10.62
2018-07-27T10:45:39.889Z,10.24
2018-07-27T10:48:14.286Z,10.56
2018-07-27T10:50:48.824Z,12.57
2018-07-27T10:53:40.395Z,11.38
2018-07-27T10:56:14.796Z,12.15
2018-07-27T10:58:49.412Z,11.13
2018-07-27T11:01:24.101Z,12.17
2018-07-27T11:03:58.748Z,12.15
2018-07-27T11:06:33.941Z,12.07
2018-07-27T11:09:10.073Z,10.92
2018-07-27T11:11:44.420Z,11.80
2018-07-27T11:14:35.569Z,10.85
2018-07-27T11:17:10.129Z,11.27
2018-07-27T11:19:44.608Z,9.81
2018-07-27T11:22:19.204Z,10.36
2018-07-27T11:24:53.620Z,9.52
2018-07-27T11:27:28.320Z,10.75
2018-07-27T11:30:02.915Z,9.61
2018-07-27T11:32:37.310Z,11.00
2018-07-27T11:35:11.977Z,10.22
2018-07-27T11:37:46.443Z,10.11
2018-07-27T11:40:20.752Z,11.17
2018-07-27T11:42:54.988Z,11.45
2018-07-27T11:45:29.387Z,12.60
2018-07-27T11:48:04.442Z,13.49
2018-07-27T11:50:38.712Z,12.83
2018-07-27T11:53:13.115Z,14.07
2018-07-27T11:55:47.508Z,15.29
2018-07-27T11:58:21.819Z,15.18
2018-07-27T12:00:56.106Z,17.20
2018-07-27T12:03:30.369Z,16.48
2018-07-27T12:06:04.843Z,16.42
2018-07-27T12:08:39.416Z,17.36
2018-07-27T12:11:28.508Z,17.24
2018-07-27T12:14:03.096Z,17.63
2018-07-27T12:16:37.416Z,18.19
2018-07-27T12:19:11.795Z,17.75
2018-07-27T12:21:46.302Z,18.31
2018-07-27T12:27:27.274Z,19.25
2018-07-27T12:30:01.536Z,19.57
2018-07-27T12:32:36.292Z,19.79
2018-07-27T12:35:10.932Z,19.47
2018-07-27T12:37:45.311Z,18.83
2018-07-27T12:40:19.691Z,18.50
2018-07-27T12:42:54.001Z,18.56
2018-07-27T12:45:28.427Z,18.43
2018-07-27T12:48:02.831Z,18.53
2018-07-27T12:50:37.099Z,19.08
2018-07-27T12:53:11.499Z,20.04
2018-07-27T12:55:45.722Z,19.23
2018-07-27T12:58:20.100Z,18.89
2018-07-27T13:00:54.336Z,18.51
2018-07-27T13:03:28.723Z,18.35
2018-07-27T13:06:03.081Z,18.03
2018-07-27T13:08:37.426Z,18.45
2018-07-27T13:11:11.675Z,17.96
2018-07-27T13:13:45.924Z,18.29
2018-07-27T13:16:20.291Z,19.69
2018-07-27T13:18:55.065Z,19.34
2018-07-27T13:21:29.340Z,19.78
2018-07-27T13:24:04.041Z,19.52
2018-07-27T13:26:38.441Z,18.97
2018-07-27T13:29:13.004Z,19.03
2018-07-27T13:31:55.383Z,19.90
2018-07-27T13:34:32.376Z,18.33
2018-07-27T13:37:06.684Z,18.45
2018-07-27T13:39:41.704Z,18.62
2018-07-27T13:42:17.356Z,18.21
2018-07-27T13:44:51.723Z,17.82
2018-07-27T13:47:26.148Z,18.60
2018-07-27T13:50:00.520Z,18.98
2018-07-27T13:52:34.876Z,18.82
2018-07-27T13:55:09.295Z,18.38
2018-07-27T13:57:43.908Z,17.90
2018-07-27T14:00:18.379Z,17.83
2018-07-27T14:02:52.728Z,18.03
2018-07-27T14:05:26.991Z,17.75
2018-07-27T14:08:01.404Z,17.64
2018-07-27T14:10:35.801Z,18.14
2018-07-27T14:13:10.128Z,18.39
2018-07-27T14:15:44.486Z,18.27
2018-07-27T14:18:18.882Z,18.46
2018-07-27T14:20:53.215Z,18.31
2018-07-27T14:23:27.563Z,17.48
2018-07-27T14:26:01.928Z,16.77
2018-07-27T14:28:36.351Z,17.95
2018-07-27T14:31:11.050Z,16.31
2018-07-27T14:33:45.593Z,15.24
2018-07-27T14:36:20.003Z,14.63
2018-07-27T14:38:54.380Z,14.32
2018-07-27T14:41:28.780Z,13.75
2018-07-27T14:44:03.428Z,13.29
2018-07-27T14:46:38.259Z,13.11
2018-07-27T14:49:15.157Z,12.66
2018-07-27T14:51:49.783Z,11.98
2018-07-27T14:54:24.337Z,12.70
2018-07-27T14:56:58.910Z,13.16
2018-07-27T14:59:33.236Z,12.26
2018-07-27T15:02:07.768Z,12.13
2018-07-27T15:04:42.354Z,12.83
2018-07-27T15:07:16.653Z,12.08
2018-07-27T15:09:51.188Z,12.24
2018-07-27T15:12:25.765Z,11.99
2018-07-27T15:15:00.285Z,12.34
2018-07-27T15:17:34.891Z,13.01
2018-07-27T15:20:09.401Z,13.37
2018-07-27T15:22:43.769Z,13.25
2018-07-27T15:25:18.188Z,12.06
2018-07-27T15:27:52.615Z,12.84
2018-07-27T15:30:27.377Z,12.73
2018-07-27T15:33:01.837Z,12.90
2018-07-27T15:35:36.228Z,12.94
2018-07-27T15:38:10.618Z,13.68
2018-07-27T15:40:45.058Z,15.58
2018-07-27T15:43:19.762Z,15.93
2018-07-27T15:45:55.168Z,15.74
2018-07-27T15:48:29.875Z,16.51
2018-07-27T15:51:04.344Z,16.33
2018-07-27T15:53:38.708Z,16.84
2018-07-27T15:56:13.293Z,16.95
2018-07-27T16:02:10.788Z,17.22
2018-07-27T16:04:45.353Z,17.09
2018-07-27T16:07:19.876Z,18.85
2018-07-27T16:09:54.736Z,17.89
2018-07-27T16:12:29.630Z,17.71
2018-07-27T16:18:07.133Z,18.23
2018-07-27T16:23:40.904Z,19.30
2018-07-27T16:26:15.500Z,19.51
2018-07-27T16:28:50.330Z,18.87
2018-07-27T16:31:25.154Z,19.23
2018-07-27T16:34:00.417Z,19.12
2018-07-27T16:36:35.191Z,20.64
2018-07-27T16:39:13.077Z,21.54
2018-07-27T16:41:47.712Z,18.66
2018-07-27T16:44:22.649Z,18.54
2018-07-27T16:46:57.164Z,18.87
2018-07-27T16:49:31.629Z,19.04
2018-07-27T16:52:06.148Z,20.30
2018-07-27T16:54:40.486Z,19.64
2018-07-27T16:57:14.939Z,20.12
2018-07-27T16:59:49.410Z,19.72
2018-07-27T17:02:23.908Z,19.38
2018-07-27T17:04:58.395Z,20.78
2018-07-27T17:07:32.984Z,21.09
2018-07-27T17:10:07.405Z,20.04
2018-07-27T17:12:41.872Z,20.67
2018-07-27T17:15:16.435Z,19.88
2018-07-27T17:18:03.113Z,22.83
2018-07-27T17:23:36.908Z,19.62
2018-07-27T17:26:11.412Z,20.70
2018-07-27T17:28:45.889Z,20.42
2018-07-27T17:31:20.253Z,20.63
2018-07-27T17:33:54.589Z,21.00
2018-07-27T17:36:28.917Z,19.92
2018-07-27T17:39:03.449Z,20.25
2018-07-27T17:41:38.037Z,20.33
2018-07-27T17:44:19.445Z,20.30
2018-07-27T17:46:53.910Z,20.56
2018-07-27T17:49:28.291Z,20.26
2018-07-27T17:52:02.688Z,20.04
2018-07-27T17:54:37.113Z,20.40
2018-07-27T17:57:11.586Z,20.71
2018-07-27T17:59:45.960Z,20.96
2018-07-27T18:02:20.396Z,19.77
2018-07-27T18:04:54.897Z,20.54
2018-07-27T18:07:29.499Z,20.88
2018-07-27T18:10:03.769Z,20.81
2018-07-27T18:12:38.756Z,21.03
2018-07-27T18:15:13.248Z,21.04
2018-07-27T18:17:47.772Z,22.18
2018-07-27T18:20:22.219Z,21.30
2018-07-27T18:22:56.700Z,22.47
2018-07-27T18:25:31.115Z,22.03
2018-07-27T18:28:05.620Z,22.54
2018-07-27T18:30:42.133Z,21.62
2018-07-27T18:33:35.013Z,23.76
2018-07-27T18:39:28.203Z,21.84
2018-07-27T18:42:08.341Z,24.04
2018-07-27T18:47:42.396Z,23.09
2018-07-27T18:50:16.860Z,23.79
2018-07-27T18:52:51.498Z,26.22
2018-07-27T18:58:33.478Z,25.21
2018-07-27T19:04:24.209Z,26.27
2018-07-27T19:06:59.692Z,26.39
2018-07-27T19:12:33.479Z,26.73
2018-07-27T19:15:08.798Z,27.89
2018-07-27T19:17:43.305Z,30.34
2018-07-27T19:20:17.964Z,28.08
2018-07-27T19:22:52.474Z,28.89
2018-07-27T19:25:27.264Z,29.09
2018-07-27T19:28:01.749Z,29.37
2018-07-27T19:30:36.272Z,28.33
2018-07-27T19:33:34.913Z,30.70
2018-07-27T19:36:26.801Z,30.21
2018-07-27T19:39:01.210Z,30.36
2018-07-27T19:41:35.785Z,30.46
2018-07-27T19:44:10.487Z,30.80
2018-07-27T19:46:45.064Z,31.41
2018-07-27T19:49:19.656Z,31.29
2018-07-27T19:51:54.489Z,31.48
2018-07-27T19:54:29.075Z,31.05
2018-07-27T19:57:03.540Z,32.73
2018-07-27T19:59:38.269Z,31.33
2018-07-27T20:02:13.177Z,31.00
2018-07-27T20:04:47.700Z,31.76
2018-07-27T20:07:22.095Z,32.95
2018-07-27T20:09:56.490Z,33.28
2018-07-27T20:12:31.067Z,33.35
2018-07-27T20:15:06.260Z,31.94
2018-07-27T20:17:40.808Z,32.39
2018-07-27T20:20:15.327Z,32.90
2018-07-27T20:22:50.221Z,32.55
2018-07-27T20:25:24.898Z,32.71
2018-07-27T20:27:59.468Z,33.26
2018-07-27T20:30:34.319Z,33.59
2018-07-27T20:33:08.730Z,34.58
2018-07-27T20:35:43.461Z,34.17
2018-07-27T20:38:18.077Z,33.38
2018-07-27T20:40:52.764Z,34.75
2018-07-27T20:43:27.264Z,33.12
2018-07-27T20:46:01.646Z,33.24
2018-07-27T20:48:36.201Z,33.06
2018-07-27T20:51:10.685Z,33.98
2018-07-27T20:53:45.077Z,33.71
2018-07-27T20:56:19.644Z,32.07
2018-07-27T20:58:54.142Z,32.73
2018-07-27T21:01:28.624Z,33.24
2018-07-27T21:04:03.253Z,34.36
2018-07-27T21:06:37.768Z,34.71
2018-07-27T21:09:12.864Z,33.27
2018-07-27T21:11:47.222Z,33.55
2018-07-27T21:14:21.502Z,33.67
2018-07-27T21:16:55.908Z,33.28
2018-07-27T21:19:30.405Z,34.49
2018-07-27T21:22:05.118Z,33.98
2018-07-27T21:24:39.589Z,33.82
2018-07-27T21:27:14.160Z,33.98
2018-07-27T21:29:48.698Z,32.83
2018-07-27T21:32:23.152Z,32.79
2018-07-27T21:34:57.605Z,32.62
2018-07-27T21:37:32.021Z,32.50
2018-07-27T21:40:06.917Z,32.69
2018-07-27T21:42:41.430Z,32.53
2018-07-27T21:45:15.952Z,33.32
2018-07-27T21:47:50.513Z,33.14
2018-07-27T21:50:24.964Z,33.47
2018-07-27T21:52:59.392Z,33.69
2018-07-27T21:55:33.780Z,33.95
2018-07-27T21:58:08.151Z,34.42
2018-07-27T22:00:42.580Z,33.65
2018-07-27T22:03:16.986Z,33.84
2018-07-27T22:05:51.432Z,33.56
2018-07-27T22:08:26.115Z,33.82
2018-07-27T22:11:00.603Z,33.80
2018-07-27T22:13:34.944Z,34.35
2018-07-27T22:16:09.585Z,34.37
2018-07-27T22:18:44.219Z,33.95
2018-07-27T22:21:18.620Z,34.81
2018-07-27T22:23:53.041Z,35.54
2018-07-27T22:26:27.728Z,35.19
2018-07-27T22:29:02.534Z,35.40
2018-07-27T22:31:37.089Z,35.29
2018-07-27T22:34:11.573Z,34.86
2018-07-27T22:36:45.997Z,34.83
2018-07-27T22:39:20.420Z,35.62
2018-07-27T22:41:54.848Z,35.88
2018-07-27T22:44:29.318Z,36.29
2018-07-27T22:47:03.832Z,35.71
2018-07-27T22:49:38.313Z,35.81
2018-07-27T22:52:12.661Z,36.47
2018-07-27T22:54:47.144Z,36.46
2018-07-27T22:57:21.833Z,36.56
2018-07-27T22:59:56.408Z,36.85
2018-07-27T23:02:31.024Z,36.35
2018-07-27T23:05:06.329Z,36.83
2018-07-27T23:07:40.884Z,37.25
2018-07-27T23:10:15.499Z,37.20
2018-07-27T23:12:50.080Z,37.58
2018-07-27T23:15:24.652Z,37.58
2018-07-27T23:17:59.324Z,38.00
2018-07-27T23:20:33.909Z,37.88
2018-07-27T23:23:08.340Z,38.35
2018-07-27T23:25:42.897Z,38.73
2018-07-27T23:28:18.277Z,38.16
2018-07-27T23:30:52.582Z,38.75
2018-07-27T23:33:27.144Z,39.24
2018-07-27T23:36:01.645Z,38.75
2018-07-27T23:38:36.504Z,38.68
2018-07-27T23:41:11.088Z,39.40
2018-07-27T23:43:45.519Z,38.99
2018-07-27T23:46:19.871Z,39.46
2018-07-27T23:48:54.214Z,39.70
2018-07-27T23:51:28.612Z,38.87
2018-07-27T23:54:03.240Z,39.39
2018-07-27T23:56:37.821Z,39.76
2018-07-27T23:59:12.265Z,39.69
